sensor_id;sensor_type;location;lat;lon;timestamp;P1;durP1;ratioP1;P2;durP2;ratioP2
54201;SDS011;40108;53.152;5.844;2023-06-14T00:00:39;5.20;;;1.65;;
54201;SDS011;40108;53.152;5.844;2023-06-14T00:03:12;4.90;;;1.98;;
54201;SDS011;40108;53.152;5.844;2023-06-14T00:05:42;5.00;;;1.85;;
54201;SDS011;40108;53.152;5.844;2023-06-14T00:08:11;8.48;;;2.13;;
54201;SDS011;40108;53.152;5.844;2023-06-14T00:10:37;4.93;;;1.95;;
54201;SDS011;40108;53.152;5.844;2023-06-14T00:13:06;3.42;;;1.70;;
54201;SDS011;40108;53.152;5.844;2023-06-14T00:15:35;5.13;;;2.22;;
54201;SDS011;40108;53.152;5.844;2023-06-14T00:18:01;4.57;;;1.65;;
54201;SDS011;40108;53.152;5.844;2023-06-14T00:20:27;5.18;;;2.10;;
54201;SDS011;40108;53.152;5.844;2023-06-14T00:22:54;8.05;;;2.10;;
54201;SDS011;40108;53.152;5.844;2023-06-14T00:25:29;5.70;;;2.05;;
54201;SDS011;40108;53.152;5.844;2023-06-14T00:27:57;6.20;;;1.98;;
54201;SDS011;40108;53.152;5.844;2023-06-14T00:30:23;4.63;;;1.80;;
54201;SDS011;40108;53.152;5.844;2023-06-14T00:32:50;3.47;;;1.80;;
54201;SDS011;40108;53.152;5.844;2023-06-14T00:35:16;6.47;;;1.90;;
54201;SDS011;40108;53.152;5.844;2023-06-14T00:37:45;3.67;;;1.88;;
54201;SDS011;40108;53.152;5.844;2023-06-14T00:40:32;3.45;;;1.73;;
54201;SDS011;40108;53.152;5.844;2023-06-14T00:42:56;3.78;;;1.70;;
54201;SDS011;40108;53.152;5.844;2023-06-14T00:45:22;5.28;;;1.73;;
54201;SDS011;40108;53.152;5.844;2023-06-14T00:47:50;3.60;;;1.92;;
54201;SDS011;40108;53.152;5.844;2023-06-14T00:50:20;7.13;;;1.65;;
54201;SDS011;40108;53.152;5.844;2023-06-14T00:52:51;3.33;;;1.50;;
54201;SDS011;40108;53.152;5.844;2023-06-14T00:55:17;8.48;;;1.63;;
54201;SDS011;40108;53.152;5.844;2023-06-14T00:57:42;4.60;;;1.75;;
54201;SDS011;40108;53.152;5.844;2023-06-14T01:00:12;6.85;;;2.15;;
54201;SDS011;40108;53.152;5.844;2023-06-14T01:02:39;7.20;;;1.75;;
54201;SDS011;40108;53.152;5.844;2023-06-14T01:05:05;5.20;;;1.70;;
54201;SDS011;40108;53.152;5.844;2023-06-14T01:16:04;5.45;;;1.73;;
54201;SDS011;40108;53.152;5.844;2023-06-14T01:18:30;3.10;;;1.63;;
54201;SDS011;40108;53.152;5.844;2023-06-14T01:20:57;2.17;;;1.50;;
54201;SDS011;40108;53.152;5.844;2023-06-14T01:23:23;9.13;;;2.42;;
54201;SDS011;40108;53.152;5.844;2023-06-14T01:25:50;4.50;;;1.60;;
54201;SDS011;40108;53.152;5.844;2023-06-14T01:28:20;4.78;;;1.40;;
54201;SDS011;40108;53.152;5.844;2023-06-14T01:30:50;2.55;;;1.45;;
54201;SDS011;40108;53.152;5.844;2023-06-14T01:33:19;3.40;;;1.60;;
54201;SDS011;40108;53.152;5.844;2023-06-14T01:35:53;5.53;;;1.50;;
54201;SDS011;40108;53.152;5.844;2023-06-14T01:38:24;4.93;;;1.58;;
54201;SDS011;40108;53.152;5.844;2023-06-14T01:40:51;2.35;;;1.33;;
54201;SDS011;40108;53.152;5.844;2023-06-14T01:43:23;5.60;;;1.50;;
54201;SDS011;40108;53.152;5.844;2023-06-14T01:45:49;2.00;;;1.38;;
54201;SDS011;40108;53.152;5.844;2023-06-14T01:48:17;4.50;;;1.48;;
54201;SDS011;40108;53.152;5.844;2023-06-14T01:50:45;3.95;;;1.58;;
54201;SDS011;40108;53.152;5.844;2023-06-14T01:53:10;6.82;;;1.70;;
54201;SDS011;40108;53.152;5.844;2023-06-14T01:55:36;3.83;;;1.60;;
54201;SDS011;40108;53.152;5.844;2023-06-14T01:58:10;2.15;;;1.52;;
54201;SDS011;40108;53.152;5.844;2023-06-14T02:00:36;4.72;;;1.52;;
54201;SDS011;40108;53.152;5.844;2023-06-14T02:03:02;3.90;;;1.42;;
54201;SDS011;40108;53.152;5.844;2023-06-14T02:05:31;5.70;;;1.73;;
54201;SDS011;40108;53.152;5.844;2023-06-14T02:07:57;4.10;;;1.50;;
54201;SDS011;40108;53.152;5.844;2023-06-14T02:10:22;2.78;;;1.58;;
54201;SDS011;40108;53.152;5.844;2023-06-14T02:12:54;3.05;;;1.42;;
54201;SDS011;40108;53.152;5.844;2023-06-14T02:15:20;4.90;;;1.70;;
54201;SDS011;40108;53.152;5.844;2023-06-14T02:17:47;5.63;;;1.65;;
54201;SDS011;40108;53.152;5.844;2023-06-14T02:20:14;6.95;;;1.90;;
54201;SDS011;40108;53.152;5.844;2023-06-14T02:22:40;5.15;;;1.70;;
54201;SDS011;40108;53.152;5.844;2023-06-14T02:25:06;2.17;;;1.83;;
54201;SDS011;40108;53.152;5.844;2023-06-14T02:27:33;6.30;;;1.73;;
54201;SDS011;40108;53.152;5.844;2023-06-14T02:30:02;5.20;;;1.80;;
54201;SDS011;40108;53.152;5.844;2023-06-14T02:32:27;5.28;;;1.73;;
54201;SDS011;40108;53.152;5.844;2023-06-14T02:34:53;2.65;;;1.60;;
54201;SDS011;40108;53.152;5.844;2023-06-14T02:37:19;2.70;;;2.00;;
54201;SDS011;40108;53.152;5.844;2023-06-14T02:39:48;4.72;;;1.83;;
54201;SDS011;40108;53.152;5.844;2023-06-14T02:42:13;7.97;;;1.88;;
54201;SDS011;40108;53.152;5.844;2023-06-14T02:44:39;2.20;;;1.98;;
54201;SDS011;40108;53.152;5.844;2023-06-14T02:47:05;4.03;;;1.73;;
54201;SDS011;40108;53.152;5.844;2023-06-14T02:49:31;6.03;;;2.03;;
54201;SDS011;40108;53.152;5.844;2023-06-14T02:51:56;3.90;;;1.88;;
54201;SDS011;40108;53.152;5.844;2023-06-14T02:54:22;4.53;;;2.17;;
54201;SDS011;40108;53.152;5.844;2023-06-14T02:56:48;3.45;;;2.00;;
54201;SDS011;40108;53.152;5.844;2023-06-14T02:59:19;4.25;;;1.80;;
54201;SDS011;40108;53.152;5.844;2023-06-14T03:01:49;4.00;;;2.15;;
54201;SDS011;40108;53.152;5.844;2023-06-14T03:04:20;1.95;;;1.67;;
54201;SDS011;40108;53.152;5.844;2023-06-14T03:06:46;4.70;;;1.95;;
54201;SDS011;40108;53.152;5.844;2023-06-14T03:09:15;5.53;;;1.98;;
54201;SDS011;40108;53.152;5.844;2023-06-14T03:11:41;3.83;;;2.35;;
54201;SDS011;40108;53.152;5.844;2023-06-14T03:14:07;3.67;;;1.88;;
54201;SDS011;40108;53.152;5.844;2023-06-14T03:16:33;2.75;;;2.15;;
54201;SDS011;40108;53.152;5.844;2023-06-14T03:18:59;3.00;;;2.10;;
54201;SDS011;40108;53.152;5.844;2023-06-14T03:21:25;4.82;;;2.42;;
54201;SDS011;40108;53.152;5.844;2023-06-14T03:23:54;3.92;;;1.75;;
54201;SDS011;40108;53.152;5.844;2023-06-14T03:26:20;4.38;;;2.00;;
54201;SDS011;40108;53.152;5.844;2023-06-14T03:28:47;11.63;;;2.30;;
54201;SDS011;40108;53.152;5.844;2023-06-14T03:31:15;3.13;;;2.33;;
54201;SDS011;40108;53.152;5.844;2023-06-14T03:33:44;7.35;;;2.08;;
54201;SDS011;40108;53.152;5.844;2023-06-14T03:36:09;5.60;;;2.22;;
54201;SDS011;40108;53.152;5.844;2023-06-14T03:38:38;5.75;;;2.42;;
54201;SDS011;40108;53.152;5.844;2023-06-14T03:41:04;2.80;;;2.35;;
54201;SDS011;40108;53.152;5.844;2023-06-14T03:43:29;4.25;;;2.40;;
54201;SDS011;40108;53.152;5.844;2023-06-14T03:45:58;7.07;;;2.38;;
54201;SDS011;40108;53.152;5.844;2023-06-14T03:48:23;5.65;;;2.20;;
54201;SDS011;40108;53.152;5.844;2023-06-14T03:50:49;4.30;;;2.53;;
54201;SDS011;40108;53.152;5.844;2023-06-14T03:53:15;8.38;;;2.83;;
54201;SDS011;40108;53.152;5.844;2023-06-14T03:55:41;5.07;;;2.28;;
54201;SDS011;40108;53.152;5.844;2023-06-14T03:58:07;5.38;;;2.38;;
54201;SDS011;40108;53.152;5.844;2023-06-14T04:00:33;4.43;;;2.42;;
54201;SDS011;40108;53.152;5.844;2023-06-14T04:03:01;8.13;;;2.72;;
54201;SDS011;40108;53.152;5.844;2023-06-14T04:05:28;9.77;;;2.65;;
54201;SDS011;40108;53.152;5.844;2023-06-14T04:07:54;5.43;;;2.22;;
54201;SDS011;40108;53.152;5.844;2023-06-14T04:10:20;6.53;;;2.60;;
54201;SDS011;40108;53.152;5.844;2023-06-14T04:12:46;5.07;;;2.80;;
54201;SDS011;40108;53.152;5.844;2023-06-14T04:15:12;6.68;;;2.42;;
54201;SDS011;40108;53.152;5.844;2023-06-14T04:17:38;4.55;;;2.42;;
54201;SDS011;40108;53.152;5.844;2023-06-14T04:20:04;8.65;;;2.97;;
54201;SDS011;40108;53.152;5.844;2023-06-14T04:22:32;4.13;;;2.60;;
54201;SDS011;40108;53.152;5.844;2023-06-14T04:24:59;5.07;;;2.60;;
54201;SDS011;40108;53.152;5.844;2023-06-14T04:27:25;4.13;;;2.85;;
54201;SDS011;40108;53.152;5.844;2023-06-14T04:29:52;3.47;;;2.47;;
54201;SDS011;40108;53.152;5.844;2023-06-14T04:32:30;4.20;;;2.60;;
54201;SDS011;40108;53.152;5.844;2023-06-14T04:34:58;4.15;;;2.85;;
54201;SDS011;40108;53.152;5.844;2023-06-14T04:37:27;6.07;;;2.60;;
54201;SDS011;40108;53.152;5.844;2023-06-14T04:39:54;6.03;;;3.00;;
54201;SDS011;40108;53.152;5.844;2023-06-14T04:42:21;11.13;;;3.10;;
54201;SDS011;40108;53.152;5.844;2023-06-14T04:44:50;7.85;;;2.75;;
54201;SDS011;40108;53.152;5.844;2023-06-14T04:47:21;5.60;;;2.60;;
54201;SDS011;40108;53.152;5.844;2023-06-14T04:49:47;5.38;;;2.78;;
54201;SDS011;40108;53.152;5.844;2023-06-14T04:52:12;5.72;;;2.78;;
54201;SDS011;40108;53.152;5.844;2023-06-14T04:54:41;5.60;;;2.78;;
54201;SDS011;40108;53.152;5.844;2023-06-14T04:57:07;3.08;;;2.55;;
54201;SDS011;40108;53.152;5.844;2023-06-14T04:59:39;5.70;;;3.22;;
54201;SDS011;40108;53.152;5.844;2023-06-14T05:02:05;4.70;;;2.60;;
54201;SDS011;40108;53.152;5.844;2023-06-14T05:04:32;4.55;;;2.78;;
54201;SDS011;40108;53.152;5.844;2023-06-14T05:06:57;3.47;;;2.80;;
54201;SDS011;40108;53.152;5.844;2023-06-14T05:09:23;5.13;;;2.75;;
54201;SDS011;40108;53.152;5.844;2023-06-14T05:11:52;5.55;;;2.60;;
54201;SDS011;40108;53.152;5.844;2023-06-14T05:14:17;5.90;;;2.90;;
54201;SDS011;40108;53.152;5.844;2023-06-14T05:16:43;3.85;;;2.55;;
54201;SDS011;40108;53.152;5.844;2023-06-14T05:19:11;9.10;;;2.50;;
54201;SDS011;40108;53.152;5.844;2023-06-14T05:21:37;8.65;;;3.63;;
54201;SDS011;40108;53.152;5.844;2023-06-14T05:24:03;4.78;;;2.88;;
54201;SDS011;40108;53.152;5.844;2023-06-14T05:26:29;5.25;;;2.60;;
54201;SDS011;40108;53.152;5.844;2023-06-14T05:28:57;11.02;;;2.88;;
54201;SDS011;40108;53.152;5.844;2023-06-14T05:31:28;6.78;;;2.70;;
54201;SDS011;40108;53.152;5.844;2023-06-14T05:33:54;4.70;;;2.45;;
54201;SDS011;40108;53.152;5.844;2023-06-14T05:36:20;6.47;;;2.80;;
54201;SDS011;40108;53.152;5.844;2023-06-14T05:38:48;11.60;;;3.05;;
54201;SDS011;40108;53.152;5.844;2023-06-14T05:41:15;5.68;;;2.72;;
54201;SDS011;40108;53.152;5.844;2023-06-14T05:43:45;7.47;;;2.60;;
54201;SDS011;40108;53.152;5.844;2023-06-14T05:46:11;8.73;;;3.28;;
54201;SDS011;40108;53.152;5.844;2023-06-14T05:48:37;8.32;;;3.03;;
54201;SDS011;40108;53.152;5.844;2023-06-14T05:51:05;6.22;;;2.88;;
54201;SDS011;40108;53.152;5.844;2023-06-14T05:53:33;7.53;;;3.05;;
54201;SDS011;40108;53.152;5.844;2023-06-14T05:55:59;4.05;;;2.75;;
54201;SDS011;40108;53.152;5.844;2023-06-14T05:58:28;6.15;;;2.67;;
54201;SDS011;40108;53.152;5.844;2023-06-14T06:00:53;5.35;;;2.58;;
54201;SDS011;40108;53.152;5.844;2023-06-14T06:03:19;6.13;;;2.72;;
54201;SDS011;40108;53.152;5.844;2023-06-14T06:05:48;11.55;;;3.00;;
54201;SDS011;40108;53.152;5.844;2023-06-14T06:08:14;5.22;;;2.75;;
54201;SDS011;40108;53.152;5.844;2023-06-14T06:10:45;7.07;;;2.88;;
54201;SDS011;40108;53.152;5.844;2023-06-14T06:13:13;5.97;;;2.75;;
54201;SDS011;40108;53.152;5.844;2023-06-14T06:15:45;7.68;;;2.72;;
54201;SDS011;40108;53.152;5.844;2023-06-14T06:18:11;5.93;;;2.80;;
54201;SDS011;40108;53.152;5.844;2023-06-14T06:20:37;7.32;;;2.45;;
54201;SDS011;40108;53.152;5.844;2023-06-14T06:23:02;4.43;;;2.58;;
54201;SDS011;40108;53.152;5.844;2023-06-14T06:25:28;7.25;;;2.50;;
54201;SDS011;40108;53.152;5.844;2023-06-14T06:27:57;4.93;;;2.80;;
54201;SDS011;40108;53.152;5.844;2023-06-14T06:30:26;5.05;;;2.20;;
54201;SDS011;40108;53.152;5.844;2023-06-14T06:32:51;3.92;;;2.47;;
54201;SDS011;40108;53.152;5.844;2023-06-14T06:35:18;4.65;;;2.30;;
54201;SDS011;40108;53.152;5.844;2023-06-14T06:37:44;3.67;;;2.38;;
54201;SDS011;40108;53.152;5.844;2023-06-14T06:40:12;8.93;;;2.60;;
54201;SDS011;40108;53.152;5.844;2023-06-14T06:42:38;7.07;;;2.15;;
54201;SDS011;40108;53.152;5.844;2023-06-14T06:45:04;4.50;;;2.15;;
54201;SDS011;40108;53.152;5.844;2023-06-14T06:47:30;8.20;;;2.13;;
54201;SDS011;40108;53.152;5.844;2023-06-14T06:49:58;5.78;;;2.40;;
54201;SDS011;40108;53.152;5.844;2023-06-14T06:52:24;3.53;;;2.28;;
54201;SDS011;40108;53.152;5.844;2023-06-14T06:54:50;6.68;;;2.50;;
54201;SDS011;40108;53.152;5.844;2023-06-14T06:57:19;13.45;;;2.20;;
54201;SDS011;40108;53.152;5.844;2023-06-14T06:59:47;7.32;;;2.53;;
54201;SDS011;40108;53.152;5.844;2023-06-14T07:02:19;4.72;;;2.28;;
54201;SDS011;40108;53.152;5.844;2023-06-14T07:04:45;7.65;;;2.22;;
54201;SDS011;40108;53.152;5.844;2023-06-14T07:07:10;5.20;;;2.13;;
54201;SDS011;40108;53.152;5.844;2023-06-14T07:09:36;4.25;;;1.90;;
54201;SDS011;40108;53.152;5.844;2023-06-14T07:12:02;6.18;;;2.20;;
54201;SDS011;40108;53.152;5.844;2023-06-14T07:14:28;3.63;;;2.22;;
54201;SDS011;40108;53.152;5.844;2023-06-14T07:16:55;5.95;;;2.00;;
54201;SDS011;40108;53.152;5.844;2023-06-14T07:19:20;5.10;;;1.95;;
54201;SDS011;40108;53.152;5.844;2023-06-14T07:21:49;7.25;;;2.00;;
54201;SDS011;40108;53.152;5.844;2023-06-14T07:24:16;5.30;;;1.88;;
54201;SDS011;40108;53.152;5.844;2023-06-14T07:26:42;5.45;;;1.50;;
54201;SDS011;40108;53.152;5.844;2023-06-14T07:29:10;4.93;;;2.00;;
54201;SDS011;40108;53.152;5.844;2023-06-14T07:31:36;3.53;;;1.88;;
54201;SDS011;40108;53.152;5.844;2023-06-14T07:34:04;5.43;;;1.85;;
54201;SDS011;40108;53.152;5.844;2023-06-14T07:36:30;6.97;;;1.75;;
54201;SDS011;40108;53.152;5.844;2023-06-14T07:38:58;5.15;;;1.60;;
54201;SDS011;40108;53.152;5.844;2023-06-14T07:41:24;6.25;;;1.70;;
54201;SDS011;40108;53.152;5.844;2023-06-14T07:43:50;1.98;;;1.35;;
54201;SDS011;40108;53.152;5.844;2023-06-14T07:46:16;4.13;;;1.70;;
54201;SDS011;40108;53.152;5.844;2023-06-14T07:48:42;5.82;;;1.60;;
54201;SDS011;40108;53.152;5.844;2023-06-14T07:51:07;3.72;;;2.00;;
54201;SDS011;40108;53.152;5.844;2023-06-14T07:53:33;3.55;;;1.80;;
54201;SDS011;40108;53.152;5.844;2023-06-14T07:55:59;4.53;;;1.40;;
54201;SDS011;40108;53.152;5.844;2023-06-14T07:58:25;6.50;;;1.80;;
54201;SDS011;40108;53.152;5.844;2023-06-14T08:00:51;6.70;;;1.67;;
54201;SDS011;40108;53.152;5.844;2023-06-14T08:03:16;3.13;;;1.80;;
54201;SDS011;40108;53.152;5.844;2023-06-14T08:05:43;8.60;;;1.38;;
54201;SDS011;40108;53.152;5.844;2023-06-14T08:08:08;5.63;;;1.65;;
54201;SDS011;40108;53.152;5.844;2023-06-14T08:10:37;5.25;;;1.95;;
54201;SDS011;40108;53.152;5.844;2023-06-14T08:13:03;3.08;;;1.70;;
54201;SDS011;40108;53.152;5.844;2023-06-14T08:15:29;8.25;;;1.80;;
54201;SDS011;40108;53.152;5.844;2023-06-14T08:17:55;6.43;;;2.05;;
54201;SDS011;40108;53.152;5.844;2023-06-14T08:20:21;5.70;;;1.55;;
54201;SDS011;40108;53.152;5.844;2023-06-14T08:22:47;5.15;;;1.80;;
54201;SDS011;40108;53.152;5.844;2023-06-14T08:25:13;2.95;;;1.58;;
54201;SDS011;40108;53.152;5.844;2023-06-14T08:27:38;5.90;;;1.65;;
54201;SDS011;40108;53.152;5.844;2023-06-14T08:30:05;4.72;;;1.80;;
54201;SDS011;40108;53.152;5.844;2023-06-14T08:32:35;4.95;;;2.10;;
54201;SDS011;40108;53.152;5.844;2023-06-14T08:35:01;5.53;;;1.77;;
54201;SDS011;40108;53.152;5.844;2023-06-14T08:37:27;1.98;;;1.65;;
54201;SDS011;40108;53.152;5.844;2023-06-14T08:39:54;4.45;;;1.92;;
54201;SDS011;40108;53.152;5.844;2023-06-14T08:42:21;2.90;;;1.85;;
54201;SDS011;40108;53.152;5.844;2023-06-14T08:44:49;4.03;;;1.67;;
54201;SDS011;40108;53.152;5.844;2023-06-14T08:47:15;3.90;;;1.70;;
54201;SDS011;40108;53.152;5.844;2023-06-14T08:49:43;3.35;;;1.70;;
54201;SDS011;40108;53.152;5.844;2023-06-14T08:52:12;5.43;;;1.70;;
54201;SDS011;40108;53.152;5.844;2023-06-14T08:54:43;4.68;;;1.60;;
54201;SDS011;40108;53.152;5.844;2023-06-14T08:57:12;5.45;;;1.70;;
54201;SDS011;40108;53.152;5.844;2023-06-14T08:59:40;4.20;;;1.63;;
54201;SDS011;40108;53.152;5.844;2023-06-14T09:04:38;4.72;;;1.77;;
54201;SDS011;40108;53.152;5.844;2023-06-14T09:07:05;3.10;;;1.70;;
54201;SDS011;40108;53.152;5.844;2023-06-14T09:09:31;5.00;;;2.00;;
54201;SDS011;40108;53.152;5.844;2023-06-14T09:11:57;5.28;;;1.80;;
54201;SDS011;40108;53.152;5.844;2023-06-14T09:14:23;4.15;;;1.80;;
54201;SDS011;40108;53.152;5.844;2023-06-14T09:16:53;3.17;;;1.58;;
54201;SDS011;40108;53.152;5.844;2023-06-14T09:19:22;6.40;;;1.73;;
54201;SDS011;40108;53.152;5.844;2023-06-14T09:21:49;3.70;;;1.55;;
54201;SDS011;40108;53.152;5.844;2023-06-14T09:24:18;2.80;;;1.52;;
54201;SDS011;40108;53.152;5.844;2023-06-14T09:26:47;5.57;;;1.50;;
54201;SDS011;40108;53.152;5.844;2023-06-14T09:29:16;3.88;;;1.40;;
54201;SDS011;40108;53.152;5.844;2023-06-14T09:31:42;2.53;;;1.55;;
54201;SDS011;40108;53.152;5.844;2023-06-14T09:34:08;6.35;;;1.80;;
54201;SDS011;40108;53.152;5.844;2023-06-14T09:36:34;3.55;;;1.77;;
54201;SDS011;40108;53.152;5.844;2023-06-14T09:39:07;5.90;;;1.35;;
54201;SDS011;40108;53.152;5.844;2023-06-14T09:44:02;2.42;;;1.25;;
54201;SDS011;40108;53.152;5.844;2023-06-14T09:46:38;4.68;;;1.50;;
54201;SDS011;40108;53.152;5.844;2023-06-14T09:49:04;6.90;;;1.65;;
54201;SDS011;40108;53.152;5.844;2023-06-14T09:51:31;6.90;;;1.40;;
54201;SDS011;40108;53.152;5.844;2023-06-14T09:54:08;2.40;;;1.58;;
54201;SDS011;40108;53.152;5.844;2023-06-14T09:56:41;2.92;;;1.60;;
54201;SDS011;40108;53.152;5.844;2023-06-14T09:59:10;2.15;;;1.63;;
54201;SDS011;40108;53.152;5.844;2023-06-14T10:01:41;3.30;;;1.50;;
54201;SDS011;40108;53.152;5.844;2023-06-14T10:04:08;3.15;;;1.60;;
54201;SDS011;40108;53.152;5.844;2023-06-14T10:06:39;2.53;;;1.83;;
54201;SDS011;40108;53.152;5.844;2023-06-14T10:09:10;5.30;;;1.48;;
54201;SDS011;40108;53.152;5.844;2023-06-14T10:11:36;5.00;;;1.10;;
54201;SDS011;40108;53.152;5.844;2023-06-14T10:14:06;4.70;;;1.20;;
54201;SDS011;40108;53.152;5.844;2023-06-14T10:27:13;2.47;;;1.35;;
54201;SDS011;40108;53.152;5.844;2023-06-14T10:32:55;6.05;;;1.70;;
54201;SDS011;40108;53.152;5.844;2023-06-14T10:35:33;4.13;;;1.52;;
54201;SDS011;40108;53.152;5.844;2023-06-14T10:38:09;2.97;;;1.38;;
54201;SDS011;40108;53.152;5.844;2023-06-14T10:40:36;4.75;;;1.73;;
54201;SDS011;40108;53.152;5.844;2023-06-14T10:43:20;7.60;;;1.60;;
54201;SDS011;40108;53.152;5.844;2023-06-14T10:46:32;4.57;;;1.48;;
54201;SDS011;40108;53.152;5.844;2023-06-14T10:48:41;3.50;;;1.35;;
54201;SDS011;40108;53.152;5.844;2023-06-14T10:51:21;5.07;;;1.60;;
54201;SDS011;40108;53.152;5.844;2023-06-14T10:53:47;3.45;;;1.80;;
54201;SDS011;40108;53.152;5.844;2023-06-14T10:56:23;3.85;;;1.58;;
54201;SDS011;40108;53.152;5.844;2023-06-14T10:58:50;6.78;;;1.80;;
54201;SDS011;40108;53.152;5.844;2023-06-14T11:01:18;6.63;;;1.80;;
54201;SDS011;40108;53.152;5.844;2023-06-14T11:03:57;4.07;;;1.83;;
54201;SDS011;40108;53.152;5.844;2023-06-14T11:11:51;3.35;;;1.55;;
54201;SDS011;40108;53.152;5.844;2023-06-14T11:14:19;7.47;;;1.63;;
54201;SDS011;40108;53.152;5.844;2023-06-14T11:16:48;3.58;;;1.42;;
54201;SDS011;40108;53.152;5.844;2023-06-14T11:19:14;2.60;;;1.40;;
54201;SDS011;40108;53.152;5.844;2023-06-14T11:21:42;8.48;;;1.50;;
54201;SDS011;40108;53.152;5.844;2023-06-14T11:24:09;4.13;;;1.55;;
54201;SDS011;40108;53.152;5.844;2023-06-14T11:26:37;7.75;;;2.15;;
54201;SDS011;40108;53.152;5.844;2023-06-14T11:29:06;8.63;;;1.77;;
54201;SDS011;40108;53.152;5.844;2023-06-14T11:31:32;7.40;;;2.08;;
54201;SDS011;40108;53.152;5.844;2023-06-14T11:33:58;4.22;;;1.73;;
54201;SDS011;40108;53.152;5.844;2023-06-14T11:36:28;4.43;;;1.60;;
54201;SDS011;40108;53.152;5.844;2023-06-14T11:39:12;7.45;;;1.65;;
54201;SDS011;40108;53.152;5.844;2023-06-14T11:41:40;3.08;;;1.63;;
54201;SDS011;40108;53.152;5.844;2023-06-14T11:44:07;2.42;;;1.60;;
54201;SDS011;40108;53.152;5.844;2023-06-14T11:46:33;5.13;;;1.70;;
54201;SDS011;40108;53.152;5.844;2023-06-14T11:49:00;4.82;;;1.60;;
54201;SDS011;40108;53.152;5.844;2023-06-14T11:51:31;3.38;;;1.60;;
54201;SDS011;40108;53.152;5.844;2023-06-14T11:54:01;4.80;;;1.60;;
54201;SDS011;40108;53.152;5.844;2023-06-14T11:56:28;6.68;;;1.90;;
54201;SDS011;40108;53.152;5.844;2023-06-14T11:58:54;6.22;;;1.58;;
54201;SDS011;40108;53.152;5.844;2023-06-14T12:01:22;7.35;;;1.75;;
54201;SDS011;40108;53.152;5.844;2023-06-14T12:03:49;4.57;;;1.60;;
54201;SDS011;40108;53.152;5.844;2023-06-14T12:06:15;6.00;;;2.08;;
54201;SDS011;40108;53.152;5.844;2023-06-14T12:08:43;5.40;;;1.77;;
54201;SDS011;40108;53.152;5.844;2023-06-14T12:11:11;3.83;;;1.63;;
54201;SDS011;40108;53.152;5.844;2023-06-14T12:13:38;5.13;;;1.67;;
54201;SDS011;40108;53.152;5.844;2023-06-14T12:16:07;4.80;;;1.50;;
54201;SDS011;40108;53.152;5.844;2023-06-14T12:18:35;4.75;;;1.50;;
54201;SDS011;40108;53.152;5.844;2023-06-14T12:21:08;4.07;;;1.55;;
54201;SDS011;40108;53.152;5.844;2023-06-14T12:23:53;5.65;;;1.48;;
54201;SDS011;40108;53.152;5.844;2023-06-14T12:26:19;4.18;;;1.42;;
54201;SDS011;40108;53.152;5.844;2023-06-14T12:28:46;4.38;;;1.63;;
54201;SDS011;40108;53.152;5.844;2023-06-14T12:31:13;3.50;;;1.42;;
54201;SDS011;40108;53.152;5.844;2023-06-14T12:33:40;5.57;;;1.58;;
54201;SDS011;40108;53.152;5.844;2023-06-14T12:36:06;4.68;;;1.50;;
54201;SDS011;40108;53.152;5.844;2023-06-14T12:38:34;5.43;;;1.40;;
54201;SDS011;40108;53.152;5.844;2023-06-14T12:41:00;5.18;;;1.50;;
54201;SDS011;40108;53.152;5.844;2023-06-14T12:43:26;3.72;;;1.60;;
54201;SDS011;40108;53.152;5.844;2023-06-14T12:45:54;6.45;;;1.70;;
54201;SDS011;40108;53.152;5.844;2023-06-14T12:48:20;1.95;;;1.30;;
54201;SDS011;40108;53.152;5.844;2023-06-14T12:50:52;3.60;;;1.52;;
54201;SDS011;40108;53.152;5.844;2023-06-14T12:53:18;7.40;;;1.58;;
54201;SDS011;40108;53.152;5.844;2023-06-14T12:55:48;6.32;;;1.58;;
54201;SDS011;40108;53.152;5.844;2023-06-14T12:58:14;5.97;;;1.60;;
54201;SDS011;40108;53.152;5.844;2023-06-14T13:00:47;3.10;;;1.27;;
54201;SDS011;40108;53.152;5.844;2023-06-14T13:03:13;2.88;;;1.23;;
54201;SDS011;40108;53.152;5.844;2023-06-14T13:05:39;3.47;;;1.40;;
54201;SDS011;40108;53.152;5.844;2023-06-14T13:08:06;1.98;;;1.50;;
54201;SDS011;40108;53.152;5.844;2023-06-14T13:10:33;4.03;;;1.30;;
54201;SDS011;40108;53.152;5.844;2023-06-14T13:12:59;5.75;;;1.70;;
54201;SDS011;40108;53.152;5.844;2023-06-14T13:15:25;4.85;;;1.73;;
54201;SDS011;40108;53.152;5.844;2023-06-14T13:17:52;4.53;;;1.05;;
54201;SDS011;40108;53.152;5.844;2023-06-14T13:20:17;5.65;;;1.15;;
54201;SDS011;40108;53.152;5.844;2023-06-14T13:22:46;5.15;;;1.20;;
54201;SDS011;40108;53.152;5.844;2023-06-14T13:25:12;1.92;;;0.82;;
54201;SDS011;40108;53.152;5.844;2023-06-14T13:27:38;4.05;;;1.13;;
54201;SDS011;40108;53.152;5.844;2023-06-14T13:30:06;2.03;;;0.98;;
54201;SDS011;40108;53.152;5.844;2023-06-14T13:32:32;4.70;;;1.20;;
54201;SDS011;40108;53.152;5.844;2023-06-14T13:34:58;6.07;;;1.10;;
54201;SDS011;40108;53.152;5.844;2023-06-14T13:37:26;7.13;;;1.20;;
54201;SDS011;40108;53.152;5.844;2023-06-14T13:39:52;5.93;;;1.27;;
54201;SDS011;40108;53.152;5.844;2023-06-14T13:42:18;3.00;;;1.17;;
54201;SDS011;40108;53.152;5.844;2023-06-14T13:44:43;2.20;;;0.90;;
54201;SDS011;40108;53.152;5.844;2023-06-14T13:47:09;4.88;;;1.17;;
54201;SDS011;40108;53.152;5.844;2023-06-14T13:49:35;3.10;;;1.10;;
54201;SDS011;40108;53.152;5.844;2023-06-14T13:52:00;1.88;;;1.00;;
54201;SDS011;40108;53.152;5.844;2023-06-14T13:54:26;4.65;;;1.05;;
54201;SDS011;40108;53.152;5.844;2023-06-14T13:56:52;3.75;;;1.30;;
54201;SDS011;40108;53.152;5.844;2023-06-14T13:59:18;3.45;;;1.35;;
54201;SDS011;40108;53.152;5.844;2023-06-14T14:01:48;6.32;;;1.13;;
54201;SDS011;40108;53.152;5.844;2023-06-14T14:04:14;4.63;;;1.10;;
54201;SDS011;40108;53.152;5.844;2023-06-14T14:06:52;5.75;;;1.30;;
54201;SDS011;40108;53.152;5.844;2023-06-14T14:09:18;5.95;;;1.33;;
54201;SDS011;40108;53.152;5.844;2023-06-14T14:11:49;8.73;;;1.38;;
54201;SDS011;40108;53.152;5.844;2023-06-14T14:14:15;4.25;;;1.63;;
54201;SDS011;40108;53.152;5.844;2023-06-14T14:16:41;6.93;;;1.20;;
54201;SDS011;40108;53.152;5.844;2023-06-14T14:19:06;2.95;;;1.10;;
54201;SDS011;40108;53.152;5.844;2023-06-14T14:21:35;4.70;;;1.13;;
54201;SDS011;40108;53.152;5.844;2023-06-14T14:24:01;3.83;;;1.20;;
54201;SDS011;40108;53.152;5.844;2023-06-14T14:26:27;2.53;;;1.10;;
54201;SDS011;40108;53.152;5.844;2023-06-14T14:28:55;3.00;;;1.10;;
54201;SDS011;40108;53.152;5.844;2023-06-14T14:31:21;2.47;;;1.42;;
54201;SDS011;40108;53.152;5.844;2023-06-14T14:33:47;4.00;;;1.48;;
54201;SDS011;40108;53.152;5.844;2023-06-14T14:36:12;5.50;;;1.17;;
54201;SDS011;40108;53.152;5.844;2023-06-14T14:38:38;2.92;;;1.20;;
54201;SDS011;40108;53.152;5.844;2023-06-14T14:41:04;3.92;;;1.10;;
54201;SDS011;40108;53.152;5.844;2023-06-14T14:43:30;2.92;;;1.02;;
54201;SDS011;40108;53.152;5.844;2023-06-14T14:45:57;6.88;;;1.20;;
54201;SDS011;40108;53.152;5.844;2023-06-14T14:48:22;3.55;;;1.10;;
54201;SDS011;40108;53.152;5.844;2023-06-14T14:50:48;3.45;;;1.10;;
54201;SDS011;40108;53.152;5.844;2023-06-14T14:53:17;2.42;;;1.17;;
54201;SDS011;40108;53.152;5.844;2023-06-14T14:55:43;3.47;;;1.50;;
54201;SDS011;40108;53.152;5.844;2023-06-14T14:58:12;9.05;;;2.38;;
54201;SDS011;40108;53.152;5.844;2023-06-14T15:00:38;8.95;;;2.25;;
54201;SDS011;40108;53.152;5.844;2023-06-14T15:03:04;8.23;;;2.28;;
54201;SDS011;40108;53.152;5.844;2023-06-14T15:05:30;7.07;;;2.30;;
54201;SDS011;40108;53.152;5.844;2023-06-14T15:07:55;8.07;;;2.58;;
54201;SDS011;40108;53.152;5.844;2023-06-14T15:10:21;5.32;;;2.05;;
54201;SDS011;40108;53.152;5.844;2023-06-14T15:12:47;8.48;;;2.05;;
54201;SDS011;40108;53.152;5.844;2023-06-14T15:15:13;4.80;;;2.00;;
54201;SDS011;40108;53.152;5.844;2023-06-14T15:17:38;7.88;;;2.40;;
54201;SDS011;40108;53.152;5.844;2023-06-14T15:20:04;4.55;;;2.03;;
54201;SDS011;40108;53.152;5.844;2023-06-14T15:22:31;11.95;;;2.08;;